createdAt,value
2022-10-19T00:00:44.001Z,0.00
2022-10-19T00:03:11.044Z,0.00
2022-10-19T00:05:38.131Z,0.10
2022-10-19T00:08:05.589Z,0.08
2022-10-19T00:10:35.325Z,0.00
2022-10-19T00:13:02.715Z,0.17
2022-10-19T00:15:29.781Z,0.00
2022-10-19T00:17:56.926Z,0.00
2022-10-19T00:20:23.962Z,0.10
2022-10-19T00:22:51.231Z,0.00
2022-10-19T00:25:18.347Z,0.00
2022-10-19T00:27:45.502Z,0.03
2022-10-19T00:30:12.618Z,0.05
2022-10-19T00:32:39.663Z,0.00
2022-10-19T00:35:07.340Z,0.00
2022-10-19T00:37:34.463Z,0.10
2022-10-19T00:40:01.511Z,0.00
2022-10-19T00:42:28.897Z,0.00
2022-10-19T00:44:58.475Z,0.00
2022-10-19T00:47:26.047Z,0.00
2022-10-19T00:49:53.457Z,0.10
2022-10-19T00:52:22.671Z,0.00
2022-10-19T00:54:51.145Z,0.00
2022-10-19T00:57:18.399Z,0.00
2022-10-19T00:59:49.689Z,0.00
2022-10-19T01:02:16.761Z,0.00
2022-10-19T01:04:46.620Z,0.00
2022-10-19T01:07:14.163Z,0.00
2022-10-19T01:09:41.369Z,0.00
2022-10-19T01:12:16.207Z,0.00
2022-10-19T01:14:46.133Z,0.00
2022-10-19T01:17:19.204Z,0.00
2022-10-19T01:20:01.549Z,0.00
2022-10-19T01:22:31.575Z,0.10
2022-10-19T01:24:58.599Z,0.00
2022-10-19T01:27:51.800Z,0.00
2022-10-19T01:30:23.943Z,0.00
2022-10-19T01:32:55.726Z,0.00
2022-10-19T01:35:24.639Z,0.00
2022-10-19T01:37:56.687Z,0.00
2022-10-19T01:40:38.860Z,0.00
2022-10-19T01:43:16.912Z,0.00
2022-10-19T01:45:54.907Z,0.00
2022-10-19T01:48:23.516Z,0.00
2022-10-19T01:50:58.350Z,0.00
2022-10-19T01:53:27.473Z,0.00
2022-10-19T01:55:54.981Z,0.00
2022-10-19T01:58:27.909Z,0.00
2022-10-19T02:00:56.789Z,0.00
2022-10-19T02:03:24.944Z,0.00
2022-10-19T02:05:53.608Z,0.00
2022-10-19T02:08:42.630Z,0.00
2022-10-19T02:11:09.956Z,0.00
2022-10-19T02:13:38.234Z,0.00
2022-10-19T02:16:06.960Z,0.00
2022-10-19T02:18:37.210Z,0.00
2022-10-19T02:21:04.889Z,0.00
2022-10-19T02:23:32.023Z,0.10
2022-10-19T02:25:59.458Z,0.00
2022-10-19T02:28:27.233Z,0.00
2022-10-19T02:30:54.682Z,0.00
2022-10-19T02:33:22.276Z,0.10
2022-10-19T02:35:50.143Z,0.00
2022-10-19T02:38:20.424Z,0.00
2022-10-19T02:41:09.708Z,0.00
2022-10-19T02:43:41.695Z,0.00
2022-10-19T02:46:19.493Z,0.00
2022-10-19T02:48:47.395Z,0.00
2022-10-19T02:51:30.653Z,0.00
2022-10-19T02:53:59.046Z,0.08
2022-10-19T02:56:28.416Z,0.00
2022-10-19T02:58:55.683Z,0.00
2022-10-19T03:01:22.782Z,0.00
2022-10-19T03:03:49.876Z,0.00
2022-10-19T03:06:17.151Z,0.10
2022-10-19T03:08:47.250Z,0.00
2022-10-19T03:11:14.428Z,0.10
2022-10-19T03:13:43.316Z,0.00
2022-10-19T03:16:11.598Z,0.00
2022-10-19T03:18:38.674Z,0.00
2022-10-19T03:21:07.513Z,0.00
2022-10-19T03:23:35.004Z,0.00
2022-10-19T03:26:02.243Z,0.00
2022-10-19T03:28:30.371Z,0.00
2022-10-19T03:30:57.577Z,0.00
2022-10-19T03:36:13.099Z,0.00
2022-10-19T03:38:43.069Z,0.00
2022-10-19T03:41:10.136Z,0.00
2022-10-19T03:43:37.287Z,0.00
2022-10-19T03:46:04.394Z,0.00
2022-10-19T03:48:31.431Z,0.00
2022-10-19T03:51:07.597Z,0.03
2022-10-19T03:53:35.108Z,0.00
2022-10-19T03:56:06.558Z,0.00
2022-10-19T03:58:42.312Z,0.00
2022-10-19T04:01:29.260Z,0.00
2022-10-19T04:03:57.351Z,0.00
2022-10-19T04:06:35.141Z,0.00
2022-10-19T04:09:02.257Z,0.00
2022-10-19T04:11:30.425Z,0.00
2022-10-19T04:13:58.270Z,0.00
2022-10-19T04:16:26.421Z,0.00
2022-10-19T04:18:53.678Z,0.00
2022-10-19T04:21:29.949Z,0.00
2022-10-19T04:24:05.254Z,0.00
2022-10-19T04:26:32.925Z,0.00
2022-10-19T04:29:00.697Z,0.00
2022-10-19T04:31:28.749Z,0.00
2022-10-19T04:33:56.289Z,0.00
2022-10-19T04:36:23.629Z,0.00
2022-10-19T04:38:50.753Z,0.00
2022-10-19T04:41:19.127Z,0.00
2022-10-19T04:43:46.517Z,0.00
2022-10-19T04:46:18.670Z,0.00
2022-10-19T04:48:46.967Z,0.00
2022-10-19T04:51:14.499Z,0.00
2022-10-19T04:53:42.065Z,0.00
2022-10-19T04:56:10.354Z,0.00
2022-10-19T04:58:37.557Z,0.00
2022-10-19T05:01:12.361Z,0.00
2022-10-19T05:03:39.742Z,0.00
2022-10-19T05:06:07.404Z,0.00
2022-10-19T05:08:35.085Z,0.00
2022-10-19T05:11:06.027Z,0.00
2022-10-19T05:13:33.236Z,0.00
2022-10-19T05:16:01.914Z,0.08
2022-10-19T05:18:28.958Z,0.00
2022-10-19T05:21:06.472Z,0.00
2022-10-19T05:23:33.826Z,0.00
2022-10-19T05:26:04.403Z,0.10
2022-10-19T05:28:31.929Z,0.00
2022-10-19T05:31:08.494Z,0.00
2022-10-19T05:33:36.021Z,0.00
2022-10-19T05:36:13.551Z,0.00
2022-10-19T05:38:40.632Z,0.00
2022-10-19T05:41:07.668Z,0.00
2022-10-19T05:43:34.768Z,0.00
2022-10-19T05:46:05.560Z,0.00
2022-10-19T05:48:35.873Z,0.00
2022-10-19T05:51:07.650Z,0.00
2022-10-19T05:53:35.388Z,0.00
2022-10-19T05:56:04.491Z,0.00
2022-10-19T05:58:31.673Z,0.00
2022-10-19T06:00:59.898Z,0.00
2022-10-19T06:03:27.495Z,0.00
2022-10-19T06:05:55.327Z,0.00
2022-10-19T06:08:23.240Z,0.08
2022-10-19T06:10:50.420Z,0.00
2022-10-19T06:13:18.359Z,0.00
2022-10-19T06:15:45.697Z,0.10
2022-10-19T06:18:13.728Z,0.00
2022-10-19T06:20:41.927Z,0.00
2022-10-19T06:23:09.460Z,0.00
2022-10-19T06:25:36.855Z,0.00
2022-10-19T06:28:06.821Z,0.00
2022-10-19T06:30:33.988Z,0.00
2022-10-19T06:33:01.165Z,0.00
2022-10-19T06:35:28.586Z,0.00
2022-10-19T06:37:57.473Z,0.00
2022-10-19T06:40:25.313Z,0.00
2022-10-19T06:42:55.699Z,0.10
2022-10-19T06:45:22.974Z,0.10
2022-10-19T06:47:50.143Z,0.00
2022-10-19T06:50:17.459Z,0.10
2022-10-19T06:52:44.694Z,0.00
2022-10-19T06:55:11.805Z,0.10
2022-10-19T06:57:38.976Z,0.00
2022-10-19T07:00:07.932Z,0.00
2022-10-19T07:02:35.022Z,0.00
2022-10-19T07:05:06.027Z,0.00
2022-10-19T07:07:34.589Z,0.00
2022-10-19T07:10:01.963Z,0.00
2022-10-19T07:12:28.994Z,0.00
2022-10-19T07:14:56.202Z,0.00
2022-10-19T07:17:23.301Z,0.00
2022-10-19T07:19:50.325Z,0.00
2022-10-19T07:22:22.149Z,0.00
2022-10-19T07:24:52.287Z,0.00
2022-10-19T07:27:22.448Z,0.00
2022-10-19T07:29:49.533Z,0.00
2022-10-19T07:32:20.590Z,0.00
2022-10-19T07:34:47.862Z,0.00
2022-10-19T07:37:14.957Z,0.20
2022-10-19T07:39:42.681Z,0.10
2022-10-19T07:42:09.821Z,0.00
2022-10-19T07:44:37.066Z,0.10
2022-10-19T07:47:04.818Z,0.00
2022-10-19T07:49:31.982Z,0.00
2022-10-19T07:51:59.051Z,0.00
2022-10-19T07:54:27.938Z,0.00
2022-10-19T07:56:55.069Z,0.00
2022-10-19T07:59:22.120Z,0.00
2022-10-19T08:01:50.232Z,0.00
2022-10-19T08:07:05.200Z,0.00
2022-10-19T08:12:19.352Z,0.00
2022-10-19T08:14:48.116Z,0.00
2022-10-19T08:17:17.454Z,0.00
2022-10-19T08:19:47.798Z,0.00
2022-10-19T08:22:14.864Z,0.10
2022-10-19T08:24:41.950Z,0.10
2022-10-19T08:27:09.260Z,0.00
2022-10-19T08:29:36.371Z,0.00
2022-10-19T08:32:06.579Z,0.00
2022-10-19T08:34:33.730Z,0.03
2022-10-19T08:37:06.782Z,0.00
2022-10-19T08:39:42.010Z,0.00
2022-10-19T08:42:18.986Z,0.05
2022-10-19T08:44:46.139Z,0.00
2022-10-19T08:47:32.495Z,0.00
2022-10-19T08:50:00.170Z,0.10
2022-10-19T08:52:34.475Z,0.00
2022-10-19T08:55:04.506Z,0.00
2022-10-19T08:57:39.897Z,0.00
2022-10-19T09:02:48.946Z,0.00
2022-10-19T09:05:31.121Z,0.00
2022-10-19T09:07:58.215Z,0.00
2022-10-19T09:10:30.508Z,0.08
2022-10-19T09:13:02.815Z,0.00
2022-10-19T09:15:50.198Z,0.00
2022-10-19T09:18:24.810Z,0.05
2022-10-19T09:20:56.940Z,0.05
2022-10-19T09:23:40.867Z,0.10
2022-10-19T09:26:16.245Z,0.00
2022-10-19T09:31:15.954Z,0.00
2022-10-19T09:33:44.652Z,0.00
2022-10-19T09:36:22.289Z,0.00
2022-10-19T09:38:50.542Z,0.00
2022-10-19T09:41:19.333Z,0.00
2022-10-19T09:43:52.966Z,0.10
2022-10-19T09:46:29.719Z,0.00
2022-10-19T09:48:59.576Z,0.00
2022-10-19T09:51:26.871Z,0.10
2022-10-19T09:53:55.219Z,0.00
2022-10-19T09:56:23.670Z,0.10
2022-10-19T09:58:52.327Z,0.00
2022-10-19T10:01:41.941Z,0.00
2022-10-19T10:04:14.253Z,0.10
2022-10-19T10:06:41.669Z,0.00
2022-10-19T10:09:14.979Z,0.10
2022-10-19T10:11:44.215Z,0.00
2022-10-19T10:14:28.787Z,0.00
2022-10-19T10:17:02.762Z,0.00
2022-10-19T10:19:31.099Z,0.08
2022-10-19T10:21:58.946Z,0.00
2022-10-19T10:24:30.025Z,0.00
2022-10-19T10:27:00.894Z,0.00
2022-10-19T10:29:29.757Z,0.00
2022-10-19T10:32:01.618Z,0.00
2022-10-19T10:34:38.552Z,0.00
2022-10-19T10:37:19.187Z,0.00
2022-10-19T10:39:46.480Z,0.00
2022-10-19T10:42:18.947Z,0.10
2022-10-19T10:44:48.658Z,0.00
2022-10-19T10:47:17.467Z,0.00
2022-10-19T10:49:44.941Z,0.10
2022-10-19T10:52:16.334Z,0.10
2022-10-19T10:55:07.083Z,0.00
2022-10-19T10:57:37.329Z,0.10
2022-10-19T11:00:18.962Z,0.05
2022-10-19T11:02:49.301Z,0.10
2022-10-19T11:05:20.221Z,0.13
2022-10-19T11:07:48.717Z,0.00
2022-10-19T11:10:18.842Z,0.00
2022-10-19T11:12:48.486Z,0.00
2022-10-19T11:15:45.223Z,0.00
2022-10-19T11:18:16.594Z,0.03
2022-10-19T11:20:49.202Z,0.08
2022-10-19T11:23:20.051Z,0.05
2022-10-19T11:26:05.585Z,0.00
2022-10-19T11:28:45.017Z,0.00
2022-10-19T11:31:35.173Z,0.10
2022-10-19T11:34:23.686Z,0.10
2022-10-19T11:36:56.004Z,0.10
2022-10-19T11:39:38.368Z,0.10
2022-10-19T11:42:14.722Z,0.00
2022-10-19T11:44:59.085Z,0.15
2022-10-19T11:47:52.196Z,0.00
2022-10-19T11:50:31.158Z,0.05
2022-10-19T11:52:59.260Z,0.08
2022-10-19T11:55:29.510Z,0.00
2022-10-19T11:58:00.425Z,0.10
2022-10-19T12:00:38.807Z,0.05
2022-10-19T12:03:09.867Z,0.10
2022-10-19T12:06:01.676Z,0.03
2022-10-19T12:08:48.282Z,0.10
2022-10-19T12:11:38.925Z,0.10
2022-10-19T12:14:10.071Z,0.10
2022-10-19T12:16:37.122Z,0.10
2022-10-19T12:19:05.326Z,0.00
2022-10-19T12:21:36.694Z,0.00
2022-10-19T12:24:06.407Z,0.10
2022-10-19T12:26:36.244Z,0.10
2022-10-19T12:29:06.018Z,0.10
2022-10-19T12:31:33.827Z,0.10
2022-10-19T12:34:19.638Z,0.13
2022-10-19T12:39:26.486Z,0.00
2022-10-19T12:41:53.642Z,0.00
2022-10-19T12:46:56.440Z,0.00
2022-10-19T12:49:31.927Z,0.05
2022-10-19T12:51:59.765Z,0.10
2022-10-19T12:54:37.127Z,0.10
2022-10-19T12:57:05.365Z,0.10
2022-10-19T12:59:34.065Z,0.10
2022-10-19T13:02:02.734Z,0.00
2022-10-19T13:04:31.443Z,0.00
2022-10-19T13:06:58.646Z,0.08
2022-10-19T13:09:25.841Z,0.10
2022-10-19T13:12:23.557Z,0.00
2022-10-19T13:14:59.706Z,0.08
2022-10-19T13:17:43.800Z,0.05
2022-10-19T13:20:15.586Z,0.00
2022-10-19T13:22:47.069Z,0.08
2022-10-19T13:25:17.470Z,0.10
2022-10-19T13:27:45.550Z,0.10
2022-10-19T13:30:31.460Z,0.05
2022-10-19T13:32:58.586Z,0.03
2022-10-19T13:35:25.769Z,0.10
2022-10-19T13:38:11.684Z,0.10
2022-10-19T13:40:42.002Z,0.00
2022-10-19T13:43:29.685Z,0.00
2022-10-19T13:46:13.867Z,0.10
2022-10-19T13:48:59.653Z,0.08
2022-10-19T13:54:06.514Z,0.00
2022-10-19T13:56:52.056Z,0.10
2022-10-19T13:59:19.227Z,0.10
2022-10-19T14:01:46.346Z,0.00
2022-10-19T14:04:34.667Z,0.00
2022-10-19T14:07:06.126Z,0.05
2022-10-19T14:09:52.011Z,0.00
2022-10-19T14:12:23.845Z,0.00
2022-10-19T14:14:54.857Z,0.03
2022-10-19T14:17:27.941Z,0.10
2022-10-19T14:19:57.091Z,0.00
2022-10-19T14:22:34.265Z,0.10
2022-10-19T14:25:02.679Z,0.00
2022-10-19T14:27:30.765Z,0.10
2022-10-19T14:29:58.293Z,0.03
2022-10-19T14:32:29.408Z,0.00
2022-10-19T14:35:00.177Z,0.00
2022-10-19T14:37:27.918Z,0.00
2022-10-19T14:40:06.518Z,0.00
2022-10-19T14:42:37.908Z,0.00
2022-10-19T14:45:07.341Z,0.00
2022-10-19T14:47:34.423Z,0.00
2022-10-19T14:50:01.497Z,0.00
2022-10-19T14:52:32.375Z,0.00
2022-10-19T14:55:00.186Z,0.00
2022-10-19T14:57:29.971Z,0.00
2022-10-19T14:59:58.870Z,0.00
2022-10-19T15:02:34.346Z,0.00
2022-10-19T15:05:02.879Z,0.00
2022-10-19T15:07:38.489Z,0.00
2022-10-19T15:10:10.036Z,0.00
2022-10-19T15:12:41.008Z,0.00
2022-10-19T15:15:12.262Z,0.00
2022-10-19T15:17:52.158Z,0.00
2022-10-19T15:20:43.938Z,0.00
2022-10-19T15:23:37.414Z,0.10
2022-10-19T15:26:17.380Z,0.00
2022-10-19T15:28:44.696Z,0.10
2022-10-19T15:31:22.245Z,0.10
2022-10-19T15:33:50.720Z,0.10
2022-10-19T15:36:19.534Z,0.13
2022-10-19T15:38:48.078Z,0.10
2022-10-19T15:41:26.291Z,0.20
2022-10-19T15:43:54.246Z,0.10
2022-10-19T15:46:26.030Z,0.10
2022-10-19T15:48:55.592Z,0.10
2022-10-19T15:51:26.430Z,0.20
2022-10-19T15:53:54.548Z,0.10
2022-10-19T15:56:22.779Z,0.10
2022-10-19T15:58:50.804Z,0.10
2022-10-19T16:01:19.194Z,0.10
2022-10-19T16:03:46.681Z,0.10
2022-10-19T16:06:13.805Z,0.10
2022-10-19T16:08:41.129Z,0.10
2022-10-19T16:11:14.818Z,0.00
2022-10-19T16:13:42.338Z,0.00
2022-10-19T16:16:11.654Z,0.03
2022-10-19T16:18:39.523Z,0.13
2022-10-19T16:21:06.668Z,0.10
2022-10-19T16:23:39.303Z,0.00
2022-10-19T16:26:09.164Z,0.10
2022-10-19T16:28:36.635Z,0.10
2022-10-19T16:31:05.220Z,0.08
2022-10-19T16:33:33.470Z,0.10
2022-10-19T16:36:03.693Z,0.10
2022-10-19T16:38:30.776Z,0.20
2022-10-19T16:41:01.134Z,0.05
2022-10-19T16:43:28.459Z,0.10
2022-10-19T16:45:55.598Z,0.00
2022-10-19T16:48:24.093Z,0.05
2022-10-19T16:51:14.407Z,0.10
2022-10-19T16:53:41.510Z,0.10
2022-10-19T16:56:10.035Z,0.10
2022-10-19T16:58:37.693Z,0.10
2022-10-19T17:01:08.609Z,0.10
2022-10-19T17:03:36.362Z,0.10
2022-10-19T17:06:04.697Z,0.10
2022-10-19T17:08:36.908Z,0.10
2022-10-19T17:11:12.945Z,0.03
2022-10-19T17:13:40.226Z,0.10
2022-10-19T17:16:07.638Z,0.10
2022-10-19T17:18:34.900Z,0.10
2022-10-19T17:21:06.346Z,0.00
2022-10-19T17:23:33.668Z,0.20
2022-10-19T17:26:01.362Z,0.10
2022-10-19T17:28:28.577Z,0.00
2022-10-19T17:30:57.642Z,0.13
2022-10-19T17:33:27.364Z,0.00
2022-10-19T17:35:54.513Z,0.00
2022-10-19T17:38:21.622Z,0.10
2022-10-19T17:40:48.972Z,0.00
2022-10-19T17:43:16.069Z,0.00
2022-10-19T17:48:13.498Z,0.10
2022-10-19T17:50:40.626Z,0.10
2022-10-19T17:53:07.861Z,0.08
2022-10-19T17:55:37.352Z,0.10
2022-10-19T17:58:04.406Z,0.10
2022-10-19T18:00:31.443Z,0.10
2022-10-19T18:02:58.807Z,0.10
2022-10-19T18:05:25.980Z,0.10
2022-10-19T18:07:53.776Z,0.10
2022-10-19T18:10:20.859Z,0.00
2022-10-19T18:12:48.113Z,0.10
2022-10-19T18:15:15.293Z,0.00
2022-10-19T18:17:42.650Z,0.10
2022-10-19T18:20:10.190Z,0.10
2022-10-19T18:22:37.490Z,0.10
2022-10-19T18:25:04.723Z,0.10
2022-10-19T18:27:31.884Z,0.00
2022-10-19T18:29:58.987Z,0.10
2022-10-19T18:32:26.223Z,0.10
2022-10-19T18:34:53.377Z,0.10
2022-10-19T18:37:20.573Z,0.10
2022-10-19T18:39:47.614Z,0.30
2022-10-19T18:42:14.702Z,0.40
2022-10-19T18:44:41.724Z,0.50
2022-10-19T18:47:08.772Z,0.50
2022-10-19T18:49:35.908Z,0.52
2022-10-19T18:52:02.972Z,0.30
2022-10-19T18:54:30.068Z,0.38
2022-10-19T18:56:57.484Z,0.30
2022-10-19T18:59:24.684Z,0.20
2022-10-19T19:01:52.133Z,0.20
2022-10-19T19:04:19.273Z,0.15
2022-10-19T19:06:46.627Z,0.20
2022-10-19T19:09:14.159Z,0.20
2022-10-19T19:11:41.539Z,0.20
2022-10-19T19:14:13.103Z,0.20
2022-10-19T19:16:40.517Z,0.30
2022-10-19T19:19:08.105Z,0.35
2022-10-19T19:21:36.488Z,0.10
2022-10-19T19:24:05.564Z,0.10
2022-10-19T19:26:34.285Z,0.10
2022-10-19T19:29:01.573Z,0.17
2022-10-19T19:31:31.677Z,0.10
2022-10-19T19:34:06.391Z,0.10
2022-10-19T19:36:33.520Z,0.10
2022-10-19T19:39:01.534Z,0.13
2022-10-19T19:41:30.733Z,0.10
2022-10-19T19:43:58.963Z,0.20
2022-10-19T19:46:26.378Z,0.20
2022-10-19T19:48:58.285Z,0.20
2022-10-19T19:51:25.321Z,0.30
2022-10-19T19:53:55.340Z,0.20
2022-10-19T19:56:22.457Z,0.20
2022-10-19T19:58:59.772Z,0.20
2022-10-19T20:01:27.253Z,0.20
2022-10-19T20:03:54.432Z,0.10
2022-10-19T20:06:25.013Z,0.30
2022-10-19T20:08:53.363Z,0.20
2022-10-19T20:11:21.920Z,0.10
2022-10-19T20:13:49.138Z,0.20
2022-10-19T20:16:17.762Z,0.10
2022-10-19T20:18:46.013Z,0.28
2022-10-19T20:21:13.887Z,0.10
2022-10-19T20:23:41.152Z,0.10
2022-10-19T20:26:14.543Z,0.10
2022-10-19T20:28:41.706Z,0.10
2022-10-19T20:31:12.473Z,0.10
2022-10-19T20:33:40.802Z,0.05
2022-10-19T20:36:11.339Z,0.10
2022-10-19T20:38:38.957Z,0.03
2022-10-19T20:41:08.216Z,0.10
2022-10-19T20:43:36.672Z,0.05
2022-10-19T20:46:04.941Z,0.10
2022-10-19T20:48:32.272Z,0.13
2022-10-19T20:51:16.179Z,0.10
2022-10-19T20:53:46.170Z,0.10
2022-10-19T20:56:13.896Z,0.00
2022-10-19T20:58:43.385Z,0.20
2022-10-19T21:01:12.696Z,0.10
2022-10-19T21:03:39.965Z,0.05
2022-10-19T21:06:08.178Z,0.22
2022-10-19T21:08:35.692Z,0.10
2022-10-19T21:11:11.427Z,0.10
2022-10-19T21:13:38.576Z,0.00
2022-10-19T21:16:27.405Z,0.00
2022-10-19T21:18:54.890Z,0.10
2022-10-19T21:21:23.372Z,0.08
2022-10-19T21:23:52.012Z,0.00
2022-10-19T21:26:19.076Z,0.10
2022-10-19T21:28:49.848Z,0.10
2022-10-19T21:31:18.195Z,0.10
2022-10-19T21:33:45.330Z,0.10
2022-10-19T21:36:12.877Z,0.10
2022-10-19T21:38:40.212Z,0.10
2022-10-19T21:41:08.232Z,0.10
2022-10-19T21:43:35.518Z,0.10
2022-10-19T21:46:03.357Z,0.10
2022-10-19T21:48:30.739Z,0.10
2022-10-19T21:50:57.886Z,0.10
2022-10-19T21:53:25.023Z,0.10
2022-10-19T21:55:52.945Z,0.10
2022-10-19T21:58:23.248Z,0.00
2022-10-19T22:00:50.438Z,0.15
2022-10-19T22:03:18.502Z,0.10
2022-10-19T22:05:52.495Z,0.10
2022-10-19T22:08:19.745Z,0.10
2022-10-19T22:10:46.885Z,0.00
2022-10-19T22:13:14.082Z,0.10
2022-10-19T22:15:41.747Z,0.10
2022-10-19T22:18:08.877Z,0.10
2022-10-19T22:20:36.602Z,0.10
2022-10-19T22:23:06.631Z,0.10
2022-10-19T22:25:34.638Z,0.10
2022-10-19T22:28:02.164Z,0.10
2022-10-19T22:30:32.134Z,0.10
2022-10-19T22:32:59.429Z,0.10
2022-10-19T22:35:26.577Z,0.10
2022-10-19T22:37:53.603Z,0.08
2022-10-19T22:40:20.667Z,0.10
2022-10-19T22:42:48.012Z,0.10
2022-10-19T22:45:15.152Z,0.17
2022-10-19T22:47:42.218Z,0.20
2022-10-19T22:50:11.671Z,0.20
2022-10-19T22:52:39.189Z,0.10
2022-10-19T22:55:06.495Z,0.10
2022-10-19T22:57:33.586Z,0.10
2022-10-19T23:00:00.825Z,0.10
2022-10-19T23:02:29.673Z,0.10
2022-10-19T23:04:56.726Z,0.17
2022-10-19T23:07:23.842Z,0.10
2022-10-19T23:09:50.867Z,0.10
2022-10-19T23:12:17.945Z,0.10
2022-10-19T23:14:44.993Z,0.13
2022-10-19T23:17:12.058Z,0.08
2022-10-19T23:19:39.158Z,0.20
2022-10-19T23:22:06.265Z,0.10
2022-10-19T23:24:33.310Z,0.20
2022-10-19T23:27:00.540Z,0.10
2022-10-19T23:29:27.598Z,0.10
2022-10-19T23:31:54.942Z,0.20
2022-10-19T23:34:22.218Z,0.10
2022-10-19T23:36:49.614Z,0.10
2022-10-19T23:39:17.307Z,0.00
2022-10-19T23:41:44.372Z,0.10
2022-10-19T23:44:11.469Z,0.10
2022-10-19T23:46:38.502Z,0.10
2022-10-19T23:49:05.570Z,0.10
2022-10-19T23:51:32.675Z,0.10
2022-10-19T23:54:00.017Z,0.10
2022-10-19T23:56:28.097Z,0.10
2022-10-19T23:58:55.497Z,0.17
